sensor_id;sensor_type;location;lat;lon;timestamp;pressure;altitude;pressure_sealevel;temperature;humidity
1652;BME280;823;49.028;8.454;2023-05-29T00:02:33;100453.13;;;19.46;47.19
1652;BME280;823;49.028;8.454;2023-05-29T00:07:33;100443.06;;;19.27;47.21
1652;BME280;823;49.028;8.454;2023-05-29T00:12:34;100450.72;;;19.30;46.64
1652;BME280;823;49.028;8.454;2023-05-29T00:17:35;100451.56;;;19.31;46.23
1652;BME280;823;49.028;8.454;2023-05-29T00:22:35;100450.94;;;19.40;45.59
1652;BME280;823;49.028;8.454;2023-05-29T00:27:39;100448.09;;;19.43;44.71
1652;BME280;823;49.028;8.454;2023-05-29T00:32:39;100446.72;;;19.50;44.39
1652;BME280;823;49.028;8.454;2023-05-29T00:37:39;100434.00;;;19.57;42.91
1652;BME280;823;49.028;8.454;2023-05-29T00:42:40;100428.94;;;19.67;42.27
1652;BME280;823;49.028;8.454;2023-05-29T00:47:41;100429.47;;;19.72;43.17
1652;BME280;823;49.028;8.454;2023-05-29T00:52:43;100433.16;;;19.69;42.09
1652;BME280;823;49.028;8.454;2023-05-29T00:57:44;100428.72;;;19.70;41.63
1652;BME280;823;49.028;8.454;2023-05-29T01:02:47;100435.25;;;19.77;41.63
1652;BME280;823;49.028;8.454;2023-05-29T01:07:47;100430.19;;;19.74;41.17
1652;BME280;823;49.028;8.454;2023-05-29T01:13:01;100433.78;;;19.73;41.21
1652;BME280;823;49.028;8.454;2023-05-29T01:18:17;100438.41;;;19.69;40.38
1652;BME280;823;49.028;8.454;2023-05-29T01:28:52;100434.84;;;19.57;39.87
1652;BME280;823;49.028;8.454;2023-05-29T01:33:57;100440.31;;;19.54;40.79
1652;BME280;823;49.028;8.454;2023-05-29T01:38:59;100443.16;;;19.51;40.01
1652;BME280;823;49.028;8.454;2023-05-29T01:44:02;100446.59;;;19.52;41.81
1652;BME280;823;49.028;8.454;2023-05-29T01:49:04;100440.75;;;19.48;41.15
1652;BME280;823;49.028;8.454;2023-05-29T01:54:05;100451.25;;;19.48;41.92
1652;BME280;823;49.028;8.454;2023-05-29T01:59:05;100455.03;;;19.44;41.48
1652;BME280;823;49.028;8.454;2023-05-29T02:04:06;100458.06;;;19.38;42.40
1652;BME280;823;49.028;8.454;2023-05-29T02:09:06;100451.78;;;19.28;42.08
1652;BME280;823;49.028;8.454;2023-05-29T02:14:07;100441.19;;;19.16;42.04
1652;BME280;823;49.028;8.454;2023-05-29T02:19:07;100438.03;;;19.11;42.59
1652;BME280;823;49.028;8.454;2023-05-29T02:24:07;100443.56;;;18.94;42.94
1652;BME280;823;49.028;8.454;2023-05-29T02:29:08;100448.94;;;18.65;43.15
1652;BME280;823;49.028;8.454;2023-05-29T02:34:08;100454.25;;;18.50;43.36
1652;BME280;823;49.028;8.454;2023-05-29T02:39:08;100456.94;;;18.36;43.58
1652;BME280;823;49.028;8.454;2023-05-29T02:44:09;100452.28;;;18.27;44.39
1652;BME280;823;49.028;8.454;2023-05-29T02:49:10;100460.63;;;18.19;44.42
1652;BME280;823;49.028;8.454;2023-05-29T02:54:10;100453.44;;;18.08;45.00
1652;BME280;823;49.028;8.454;2023-05-29T02:59:12;100457.41;;;18.01;45.45
1652;BME280;823;49.028;8.454;2023-05-29T03:04:12;100461.81;;;18.00;45.12
1652;BME280;823;49.028;8.454;2023-05-29T03:09:13;100458.00;;;17.92;45.54
1652;BME280;823;49.028;8.454;2023-05-29T03:14:13;100454.72;;;17.74;45.18
1652;BME280;823;49.028;8.454;2023-05-29T03:19:14;100457.78;;;17.66;46.26
1652;BME280;823;49.028;8.454;2023-05-29T03:24:14;100460.25;;;17.55;46.33
1652;BME280;823;49.028;8.454;2023-05-29T03:29:15;100460.25;;;17.55;47.10
1652;BME280;823;49.028;8.454;2023-05-29T03:34:16;100461.06;;;17.55;47.38
1652;BME280;823;49.028;8.454;2023-05-29T03:39:16;100465.44;;;17.40;47.54
1652;BME280;823;49.028;8.454;2023-05-29T03:44:17;100473.47;;;17.37;48.29
1652;BME280;823;49.028;8.454;2023-05-29T03:49:17;100466.66;;;17.34;47.59
1652;BME280;823;49.028;8.454;2023-05-29T03:54:17;100471.97;;;17.33;48.02
1652;BME280;823;49.028;8.454;2023-05-29T03:59:18;100481.88;;;17.28;48.28
1652;BME280;823;49.028;8.454;2023-05-29T04:04:18;100484.47;;;17.28;49.02
1652;BME280;823;49.028;8.454;2023-05-29T04:09:18;100483.94;;;17.37;48.76
1652;BME280;823;49.028;8.454;2023-05-29T04:14:18;100493.47;;;17.38;48.80
1652;BME280;823;49.028;8.454;2023-05-29T04:19:19;100502.06;;;17.40;48.79
1652;BME280;823;49.028;8.454;2023-05-29T04:24:20;100501.22;;;17.40;48.55
1652;BME280;823;49.028;8.454;2023-05-29T04:29:21;100504.50;;;17.43;48.38
1652;BME280;823;49.028;8.454;2023-05-29T04:34:21;100520.63;;;17.50;48.42
1652;BME280;823;49.028;8.454;2023-05-29T04:39:21;100515.88;;;17.57;47.95
1652;BME280;823;49.028;8.454;2023-05-29T04:44:22;100524.13;;;17.65;48.85
1652;BME280;823;49.028;8.454;2023-05-29T04:49:25;100536.94;;;17.69;48.37
1652;BME280;823;49.028;8.454;2023-05-29T04:54:26;100537.22;;;17.79;48.51
1652;BME280;823;49.028;8.454;2023-05-29T04:59:26;100545.25;;;17.91;48.09
1652;BME280;823;49.028;8.454;2023-05-29T05:04:26;100551.81;;;17.98;48.04
1652;BME280;823;49.028;8.454;2023-05-29T05:09:26;100556.28;;;18.10;47.56
1652;BME280;823;49.028;8.454;2023-05-29T05:14:27;100553.28;;;18.16;47.50
1652;BME280;823;49.028;8.454;2023-05-29T05:19:28;100550.84;;;18.28;47.89
1652;BME280;823;49.028;8.454;2023-05-29T05:24:28;100556.13;;;18.41;47.01
1652;BME280;823;49.028;8.454;2023-05-29T05:29:28;100562.75;;;18.46;45.83
1652;BME280;823;49.028;8.454;2023-05-29T05:34:29;100570.41;;;18.64;45.73
1652;BME280;823;49.028;8.454;2023-05-29T05:39:29;100570.53;;;18.75;45.56
1652;BME280;823;49.028;8.454;2023-05-29T05:44:30;100559.81;;;18.93;45.83
1652;BME280;823;49.028;8.454;2023-05-29T05:49:30;100577.22;;;18.94;44.45
1652;BME280;823;49.028;8.454;2023-05-29T05:54:30;100580.63;;;19.09;44.13
1652;BME280;823;49.028;8.454;2023-05-29T05:59:31;100595.13;;;19.27;44.54
1652;BME280;823;49.028;8.454;2023-05-29T06:04:31;100593.00;;;19.47;44.41
1652;BME280;823;49.028;8.454;2023-05-29T06:09:31;100606.66;;;19.65;43.88
1652;BME280;823;49.028;8.454;2023-05-29T06:14:32;100607.81;;;19.73;43.28
1652;BME280;823;49.028;8.454;2023-05-29T06:19:32;100628.19;;;19.96;43.55
1652;BME280;823;49.028;8.454;2023-05-29T06:24:32;100617.69;;;20.21;43.16
1652;BME280;823;49.028;8.454;2023-05-29T06:29:33;100609.78;;;20.34;43.11
1652;BME280;823;49.028;8.454;2023-05-29T06:34:34;100603.34;;;20.38;41.44
1652;BME280;823;49.028;8.454;2023-05-29T06:39:34;100598.47;;;20.58;41.56
1652;BME280;823;49.028;8.454;2023-05-29T06:44:34;100601.69;;;20.74;40.24
1652;BME280;823;49.028;8.454;2023-05-29T06:49:35;100604.22;;;20.76;39.66
1652;BME280;823;49.028;8.454;2023-05-29T06:54:35;100606.16;;;21.09;40.04
1652;BME280;823;49.028;8.454;2023-05-29T06:59:35;100599.91;;;21.35;39.22
1652;BME280;823;49.028;8.454;2023-05-29T07:04:37;100605.22;;;21.46;39.72
1652;BME280;823;49.028;8.454;2023-05-29T07:09:37;100609.22;;;21.74;37.47
1652;BME280;823;49.028;8.454;2023-05-29T07:14:39;100622.41;;;21.86;36.13
1652;BME280;823;49.028;8.454;2023-05-29T07:19:39;100611.75;;;21.99;36.47
1652;BME280;823;49.028;8.454;2023-05-29T07:24:40;100616.41;;;22.18;35.98
1652;BME280;823;49.028;8.454;2023-05-29T07:29:41;100618.94;;;22.31;35.81
1652;BME280;823;49.028;8.454;2023-05-29T07:34:41;100625.41;;;22.26;35.72
1652;BME280;823;49.028;8.454;2023-05-29T07:39:41;100627.78;;;22.64;35.71
1652;BME280;823;49.028;8.454;2023-05-29T07:44:44;100623.31;;;22.75;35.68
1652;BME280;823;49.028;8.454;2023-05-29T07:49:45;100634.66;;;22.87;35.07
1652;BME280;823;49.028;8.454;2023-05-29T07:54:46;100631.75;;;23.02;36.80
1652;BME280;823;49.028;8.454;2023-05-29T07:59:46;100629.59;;;23.07;35.36
1652;BME280;823;49.028;8.454;2023-05-29T08:04:49;100623.69;;;23.36;34.69
1652;BME280;823;49.028;8.454;2023-05-29T08:09:50;100629.38;;;23.31;35.03
1652;BME280;823;49.028;8.454;2023-05-29T08:14:50;100617.09;;;23.41;34.50
1652;BME280;823;49.028;8.454;2023-05-29T08:19:51;100617.16;;;23.51;34.21
1652;BME280;823;49.028;8.454;2023-05-29T08:24:51;100617.53;;;23.68;34.92
1652;BME280;823;49.028;8.454;2023-05-29T08:29:51;100622.97;;;23.76;34.44
1652;BME280;823;49.028;8.454;2023-05-29T08:34:51;100614.97;;;24.08;34.10
1652;BME280;823;49.028;8.454;2023-05-29T08:39:52;100619.16;;;24.11;32.93
1652;BME280;823;49.028;8.454;2023-05-29T08:44:55;100610.53;;;24.19;33.06
1652;BME280;823;49.028;8.454;2023-05-29T08:50:00;100613.22;;;24.28;35.35
1652;BME280;823;49.028;8.454;2023-05-29T08:55:00;100613.56;;;24.55;33.92
1652;BME280;823;49.028;8.454;2023-05-29T09:00:01;100615.16;;;24.77;32.37
1652;BME280;823;49.028;8.454;2023-05-29T09:05:08;100623.81;;;24.79;32.25
1652;BME280;823;49.028;8.454;2023-05-29T09:10:10;100615.72;;;24.71;31.74
1652;BME280;823;49.028;8.454;2023-05-29T09:15:20;100610.16;;;24.93;31.74
1652;BME280;823;49.028;8.454;2023-05-29T09:20:22;100607.25;;;25.16;32.15
1652;BME280;823;49.028;8.454;2023-05-29T09:25:29;100611.28;;;25.49;32.73
1652;BME280;823;49.028;8.454;2023-05-29T09:30:36;100608.91;;;25.56;30.53
1652;BME280;823;49.028;8.454;2023-05-29T09:35:41;100613.84;;;25.79;30.72
1652;BME280;823;49.028;8.454;2023-05-29T09:40:42;100618.69;;;25.93;30.62
1652;BME280;823;49.028;8.454;2023-05-29T09:45:49;100615.22;;;26.21;29.72
1652;BME280;823;49.028;8.454;2023-05-29T09:50:50;100606.00;;;26.25;30.17
1652;BME280;823;49.028;8.454;2023-05-29T09:55:56;100608.19;;;26.39;29.52
1652;BME280;823;49.028;8.454;2023-05-29T10:00:59;100605.97;;;26.52;30.46
1652;BME280;823;49.028;8.454;2023-05-29T10:06:01;100609.53;;;26.71;29.41
1652;BME280;823;49.028;8.454;2023-05-29T10:11:02;100594.31;;;26.63;30.19
1652;BME280;823;49.028;8.454;2023-05-29T10:16:07;100584.56;;;26.82;29.63
1652;BME280;823;49.028;8.454;2023-05-29T10:21:12;100591.63;;;26.91;29.08
1652;BME280;823;49.028;8.454;2023-05-29T10:26:20;100590.84;;;27.17;27.72
1652;BME280;823;49.028;8.454;2023-05-29T10:31:32;100585.38;;;27.37;28.52
1652;BME280;823;49.028;8.454;2023-05-29T10:36:42;100576.69;;;27.34;28.70
1652;BME280;823;49.028;8.454;2023-05-29T10:41:44;100576.53;;;27.54;26.62
1652;BME280;823;49.028;8.454;2023-05-29T10:51:49;100571.88;;;27.56;26.20
1652;BME280;823;49.028;8.454;2023-05-29T10:56:56;100565.31;;;27.68;27.02
1652;BME280;823;49.028;8.454;2023-05-29T11:01:57;100571.59;;;27.67;25.31
1652;BME280;823;49.028;8.454;2023-05-29T11:06:58;100565.03;;;27.80;25.48
1652;BME280;823;49.028;8.454;2023-05-29T11:23:01;100574.81;;;27.79;24.17
1652;BME280;823;49.028;8.454;2023-05-29T11:28:05;100564.81;;;28.08;25.65
1652;BME280;823;49.028;8.454;2023-05-29T11:33:27;100573.53;;;28.18;26.35
1652;BME280;823;49.028;8.454;2023-05-29T11:38:28;100565.41;;;28.36;24.39
1652;BME280;823;49.028;8.454;2023-05-29T11:43:29;100561.94;;;28.52;27.17
1652;BME280;823;49.028;8.454;2023-05-29T11:48:29;100561.09;;;28.43;25.54
1652;BME280;823;49.028;8.454;2023-05-29T11:53:30;100548.94;;;28.32;24.30
1652;BME280;823;49.028;8.454;2023-05-29T11:58:30;100549.16;;;28.56;26.01
1652;BME280;823;49.028;8.454;2023-05-29T12:03:31;100548.81;;;28.59;24.66
1652;BME280;823;49.028;8.454;2023-05-29T12:08:31;100552.34;;;28.84;24.63
1652;BME280;823;49.028;8.454;2023-05-29T12:13:32;100539.38;;;29.14;24.70
1652;BME280;823;49.028;8.454;2023-05-29T12:18:32;100547.34;;;29.14;24.38
1652;BME280;823;49.028;8.454;2023-05-29T12:23:33;100543.69;;;29.23;23.02
1652;BME280;823;49.028;8.454;2023-05-29T12:28:34;100555.69;;;29.02;22.61
1652;BME280;823;49.028;8.454;2023-05-29T12:33:34;100545.03;;;29.19;23.10
1652;BME280;823;49.028;8.454;2023-05-29T12:38:48;100546.66;;;29.36;21.89
1652;BME280;823;49.028;8.454;2023-05-29T12:43:48;100544.69;;;29.38;21.03
1652;BME280;823;49.028;8.454;2023-05-29T12:48:49;100548.13;;;29.47;21.11
1652;BME280;823;49.028;8.454;2023-05-29T12:53:50;100539.59;;;29.60;20.72
1652;BME280;823;49.028;8.454;2023-05-29T12:58:50;100535.44;;;29.66;21.54
1652;BME280;823;49.028;8.454;2023-05-29T13:03:51;100542.22;;;29.68;20.79
1652;BME280;823;49.028;8.454;2023-05-29T13:08:52;100544.78;;;29.62;20.68
1652;BME280;823;49.028;8.454;2023-05-29T13:13:52;100538.59;;;29.61;19.29
1652;BME280;823;49.028;8.454;2023-05-29T13:18:53;100537.00;;;29.92;20.72
1652;BME280;823;49.028;8.454;2023-05-29T13:23:53;100530.72;;;29.76;20.96
1652;BME280;823;49.028;8.454;2023-05-29T13:28:54;100527.13;;;30.00;21.38
1652;BME280;823;49.028;8.454;2023-05-29T13:33:54;100527.34;;;29.91;19.47
1652;BME280;823;49.028;8.454;2023-05-29T13:38:55;100519.97;;;30.01;21.95
1652;BME280;823;49.028;8.454;2023-05-29T13:43:55;100520.38;;;29.89;20.67
1652;BME280;823;49.028;8.454;2023-05-29T13:48:55;100515.91;;;29.73;20.30
1652;BME280;823;49.028;8.454;2023-05-29T13:53:56;100513.28;;;29.65;20.61
1652;BME280;823;49.028;8.454;2023-05-29T13:58:57;100510.78;;;29.64;20.17
1652;BME280;823;49.028;8.454;2023-05-29T14:04:07;100492.19;;;29.47;20.45
1652;BME280;823;49.028;8.454;2023-05-29T14:09:07;100503.94;;;29.69;20.83
1652;BME280;823;49.028;8.454;2023-05-29T14:14:10;100505.91;;;29.76;20.91
1652;BME280;823;49.028;8.454;2023-05-29T14:19:10;100500.88;;;29.81;20.83
1652;BME280;823;49.028;8.454;2023-05-29T14:24:11;100498.19;;;29.81;21.15
1652;BME280;823;49.028;8.454;2023-05-29T14:29:13;100494.28;;;29.60;19.92
1652;BME280;823;49.028;8.454;2023-05-29T14:34:14;100501.03;;;29.79;21.05
1652;BME280;823;49.028;8.454;2023-05-29T14:39:14;100505.41;;;29.72;20.13
1652;BME280;823;49.028;8.454;2023-05-29T14:44:17;100496.94;;;29.68;21.83
1652;BME280;823;49.028;8.454;2023-05-29T14:49:17;100485.34;;;29.53;20.58
1652;BME280;823;49.028;8.454;2023-05-29T14:54:20;100490.34;;;29.48;22.02
1652;BME280;823;49.028;8.454;2023-05-29T14:59:20;100483.63;;;29.60;20.43
1652;BME280;823;49.028;8.454;2023-05-29T15:04:21;100474.03;;;29.51;19.29
1652;BME280;823;49.028;8.454;2023-05-29T15:09:21;100477.47;;;29.60;19.94
1652;BME280;823;49.028;8.454;2023-05-29T15:14:21;100482.81;;;29.60;19.90
1652;BME280;823;49.028;8.454;2023-05-29T15:19:21;100477.28;;;29.69;20.34
1652;BME280;823;49.028;8.454;2023-05-29T15:24:22;100479.91;;;29.78;19.77
1652;BME280;823;49.028;8.454;2023-05-29T15:29:22;100462.91;;;29.79;20.56
1652;BME280;823;49.028;8.454;2023-05-29T15:34:22;100466.50;;;29.94;21.10
1652;BME280;823;49.028;8.454;2023-05-29T15:39:23;100461.91;;;29.88;20.62
1652;BME280;823;49.028;8.454;2023-05-29T15:44:25;100457.88;;;29.84;20.62
1652;BME280;823;49.028;8.454;2023-05-29T15:49:26;100457.75;;;29.77;19.79
1652;BME280;823;49.028;8.454;2023-05-29T15:54:26;100464.41;;;29.42;20.16
1652;BME280;823;49.028;8.454;2023-05-29T15:59:26;100448.69;;;29.55;20.33
1652;BME280;823;49.028;8.454;2023-05-29T16:04:27;100456.97;;;29.60;20.96
1652;BME280;823;49.028;8.454;2023-05-29T16:09:27;100456.66;;;29.63;20.20
1652;BME280;823;49.028;8.454;2023-05-29T16:14:28;100461.38;;;29.45;19.92
1652;BME280;823;49.028;8.454;2023-05-29T16:19:28;100465.94;;;29.36;19.20
1652;BME280;823;49.028;8.454;2023-05-29T16:24:29;100450.13;;;29.18;19.86
1652;BME280;823;49.028;8.454;2023-05-29T16:29:30;100451.25;;;29.40;20.25
1652;BME280;823;49.028;8.454;2023-05-29T16:34:30;100447.72;;;29.48;19.83
1652;BME280;823;49.028;8.454;2023-05-29T16:39:30;100453.44;;;29.28;19.35
1652;BME280;823;49.028;8.454;2023-05-29T16:44:32;100452.47;;;29.29;20.27
1652;BME280;823;49.028;8.454;2023-05-29T16:49:32;100452.63;;;29.28;20.38
1652;BME280;823;49.028;8.454;2023-05-29T16:54:33;100441.47;;;29.24;20.33
1652;BME280;823;49.028;8.454;2023-05-29T16:59:39;100442.16;;;29.18;20.23
1652;BME280;823;49.028;8.454;2023-05-29T17:04:39;100449.78;;;29.21;20.87
1652;BME280;823;49.028;8.454;2023-05-29T17:09:40;100449.34;;;29.09;20.93
1652;BME280;823;49.028;8.454;2023-05-29T17:14:40;100453.81;;;29.09;21.27
1652;BME280;823;49.028;8.454;2023-05-29T17:19:40;100457.16;;;29.11;21.37
1652;BME280;823;49.028;8.454;2023-05-29T17:24:41;100452.31;;;29.14;22.83
1652;BME280;823;49.028;8.454;2023-05-29T17:29:42;100463.50;;;29.01;21.99
1652;BME280;823;49.028;8.454;2023-05-29T17:34:42;100462.53;;;28.86;23.01
1652;BME280;823;49.028;8.454;2023-05-29T17:39:43;100458.22;;;28.68;22.39
1652;BME280;823;49.028;8.454;2023-05-29T17:44:43;100460.69;;;28.70;23.22
1652;BME280;823;49.028;8.454;2023-05-29T17:49:43;100460.22;;;28.75;22.49
1652;BME280;823;49.028;8.454;2023-05-29T17:54:44;100462.84;;;28.58;22.76
1652;BME280;823;49.028;8.454;2023-05-29T17:59:44;100458.72;;;28.64;22.95
1652;BME280;823;49.028;8.454;2023-05-29T18:04:45;100457.69;;;28.48;26.39
1652;BME280;823;49.028;8.454;2023-05-29T18:09:48;100458.88;;;28.54;24.79
1652;BME280;823;49.028;8.454;2023-05-29T18:14:49;100453.53;;;28.37;24.35
1652;BME280;823;49.028;8.454;2023-05-29T18:19:50;100453.19;;;28.32;24.61
1652;BME280;823;49.028;8.454;2023-05-29T18:24:51;100457.00;;;28.22;24.84
1652;BME280;823;49.028;8.454;2023-05-29T18:29:51;100457.34;;;28.18;24.72
1652;BME280;823;49.028;8.454;2023-05-29T18:34:54;100463.16;;;28.06;24.65
1652;BME280;823;49.028;8.454;2023-05-29T18:39:55;100458.13;;;27.94;25.74
1652;BME280;823;49.028;8.454;2023-05-29T18:44:55;100460.41;;;27.81;25.72
1652;BME280;823;49.028;8.454;2023-05-29T18:49:56;100471.28;;;27.61;25.15
1652;BME280;823;49.028;8.454;2023-05-29T18:54:57;100477.19;;;27.47;25.95
1652;BME280;823;49.028;8.454;2023-05-29T18:59:57;100483.69;;;27.26;26.96
1652;BME280;823;49.028;8.454;2023-05-29T19:04:58;100486.16;;;26.93;27.31
1652;BME280;823;49.028;8.454;2023-05-29T19:09:58;100486.75;;;26.69;27.04
1652;BME280;823;49.028;8.454;2023-05-29T19:14:58;100489.72;;;26.66;27.24
1652;BME280;823;49.028;8.454;2023-05-29T19:19:59;100486.47;;;26.36;28.32
1652;BME280;823;49.028;8.454;2023-05-29T19:25:00;100495.28;;;26.37;29.27
1652;BME280;823;49.028;8.454;2023-05-29T19:30:00;100502.97;;;26.12;29.39
1652;BME280;823;49.028;8.454;2023-05-29T19:35:00;100517.13;;;26.03;29.31
1652;BME280;823;49.028;8.454;2023-05-29T19:40:03;100520.91;;;25.90;29.61
1652;BME280;823;49.028;8.454;2023-05-29T19:45:04;100533.28;;;25.72;29.72
1652;BME280;823;49.028;8.454;2023-05-29T19:50:05;100537.38;;;25.56;30.07
1652;BME280;823;49.028;8.454;2023-05-29T19:55:08;100544.38;;;25.47;30.26
1652;BME280;823;49.028;8.454;2023-05-29T20:00:09;100543.84;;;25.24;30.72
1652;BME280;823;49.028;8.454;2023-05-29T20:05:10;100555.84;;;25.09;31.21
1652;BME280;823;49.028;8.454;2023-05-29T20:10:10;100562.53;;;24.93;31.38
1652;BME280;823;49.028;8.454;2023-05-29T20:15:11;100571.06;;;24.87;31.54
1652;BME280;823;49.028;8.454;2023-05-29T20:20:12;100574.53;;;24.78;31.63
1652;BME280;823;49.028;8.454;2023-05-29T20:25:12;100587.06;;;24.66;32.00
1652;BME280;823;49.028;8.454;2023-05-29T20:30:13;100581.97;;;24.53;32.43
1652;BME280;823;49.028;8.454;2023-05-29T20:35:13;100601.44;;;24.42;32.49
1652;BME280;823;49.028;8.454;2023-05-29T20:40:16;100597.25;;;24.30;33.06
1652;BME280;823;49.028;8.454;2023-05-29T20:45:16;100613.03;;;24.10;33.40
1652;BME280;823;49.028;8.454;2023-05-29T20:50:18;100618.41;;;23.99;33.44
1652;BME280;823;49.028;8.454;2023-05-29T20:55:18;100619.09;;;23.91;33.80
1652;BME280;823;49.028;8.454;2023-05-29T21:00:18;100628.44;;;23.84;33.99
1652;BME280;823;49.028;8.454;2023-05-29T21:05:19;100626.75;;;23.73;34.28
1652;BME280;823;49.028;8.454;2023-05-29T21:10:20;100620.19;;;23.68;35.10
1652;BME280;823;49.028;8.454;2023-05-29T21:15:20;100623.84;;;23.55;34.55
1652;BME280;823;49.028;8.454;2023-05-29T21:20:21;100620.16;;;23.46;34.94
1652;BME280;823;49.028;8.454;2023-05-29T21:25:21;100615.91;;;23.34;35.07
1652;BME280;823;49.028;8.454;2023-05-29T21:30:21;100621.97;;;23.25;35.03
1652;BME280;823;49.028;8.454;2023-05-29T21:35:22;100629.81;;;23.15;35.42
1652;BME280;823;49.028;8.454;2023-05-29T21:40:22;100630.28;;;23.09;35.74
1652;BME280;823;49.028;8.454;2023-05-29T21:45:22;100627.56;;;22.99;35.92
1652;BME280;823;49.028;8.454;2023-05-29T21:50:22;100631.66;;;22.92;36.94
1652;BME280;823;49.028;8.454;2023-05-29T21:55:23;100643.28;;;22.89;38.21
1652;BME280;823;49.028;8.454;2023-05-29T22:00:23;100650.28;;;22.79;38.53
1652;BME280;823;49.028;8.454;2023-05-29T22:05:26;100662.03;;;22.75;39.22
1652;BME280;823;49.028;8.454;2023-05-29T22:10:26;100664.31;;;22.68;40.06
1652;BME280;823;49.028;8.454;2023-05-29T22:15:30;100676.41;;;22.59;40.29
1652;BME280;823;49.028;8.454;2023-05-29T22:20:30;100683.41;;;22.49;40.86
1652;BME280;823;49.028;8.454;2023-05-29T22:25:31;100690.44;;;22.37;40.65
1652;BME280;823;49.028;8.454;2023-05-29T22:30:31;100692.00;;;22.28;40.50
1652;BME280;823;49.028;8.454;2023-05-29T22:35:31;100690.78;;;22.10;40.63
1652;BME280;823;49.028;8.454;2023-05-29T22:40:35;100697.59;;;22.01;41.49
1652;BME280;823;49.028;8.454;2023-05-29T22:45:35;100698.63;;;21.87;42.05
1652;BME280;823;49.028;8.454;2023-05-29T22:50:37;100697.44;;;21.80;42.03
1652;BME280;823;49.028;8.454;2023-05-29T22:55:37;100702.16;;;21.64;42.98
1652;BME280;823;49.028;8.454;2023-05-29T23:00:38;100706.66;;;21.50;42.99
1652;BME280;823;49.028;8.454;2023-05-29T23:05:40;100699.53;;;21.39;43.23
1652;BME280;823;49.028;8.454;2023-05-29T23:10:40;100701.22;;;21.16;43.14
1652;BME280;823;49.028;8.454;2023-05-29T23:15:40;100694.00;;;21.07;43.73
1652;BME280;823;49.028;8.454;2023-05-29T23:20:43;100697.59;;;21.06;43.38
1652;BME280;823;49.028;8.454;2023-05-29T23:25:45;100700.41;;;21.03;43.89
1652;BME280;823;49.028;8.454;2023-05-29T23:30:46;100706.53;;;21.03;43.51
1652;BME280;823;49.028;8.454;2023-05-29T23:35:47;100711.63;;;20.94;43.72
1652;BME280;823;49.028;8.454;2023-05-29T23:40:47;100710.47;;;20.85;44.11
1652;BME280;823;49.028;8.454;2023-05-29T23:45:47;100707.25;;;20.81;44.27
1652;BME280;823;49.028;8.454;2023-05-29T23:50:48;100715.31;;;20.78;44.40
1652;BME280;823;49.028;8.454;2023-05-29T23:55:48;100725.22;;;20.74;44.41
